Time;durP1;ratioP1;P1;durP2;ratioP2;P2;SDS_P1;SDS_P2;PMS_P1;PMS_P2;Temp;Humidity;BMP_temperature;BMP_pressure;BME280_temperature;BME280_humidity;BME280_pressure;Samples;Min_cycle;Max_cycle;Signal;HPM_P1;HPM_P2
2024/01/17 00:00:29;;;;;;;;;;;1.30;99.90;;;;;;5020952;28;20017;-88
2024/01/17 00:02:55;;;;;;;;;;;1.30;99.90;;;;;;5016539;28;20021;-88
2024/01/17 00:05:22;;;;;;;;;;;1.30;99.90;;;;;;5022171;28;19946;-89
2024/01/17 00:07:47;;;;;;;;;;;1.30;99.90;;;;;;5017384;28;19954;-88
2024/01/17 00:10:13;;;;;;;;;;;1.30;99.90;;;;;;5019348;28;19939;-90
2024/01/17 00:12:39;;;;;;;;;;;1.30;99.90;;;;;;5022009;28;19946;-89
2024/01/17 00:15:04;;;;;;;;;;;1.40;99.90;;;;;;5021798;28;19938;-89
2024/01/17 00:17:30;;;;;;;;;;;1.40;99.90;;;;;;5006342;28;19971;-88
2024/01/17 00:19:55;;;;;;;;;;;1.30;99.90;;;;;;5019714;28;19992;-88
2024/01/17 00:22:21;;;;;;;;;;;1.40;99.90;;;;;;5022529;28;19933;-88
2024/01/17 00:24:48;;;;;;;;;;;1.40;99.90;;;;;;5018860;28;19930;-88
2024/01/17 00:27:13;;;;;;;;;;;1.40;99.90;;;;;;5021377;28;19970;-89
2024/01/17 00:29:39;;;;;;;;;;;1.40;99.90;;;;;;5017636;28;19940;-90
2024/01/17 00:32:05;;;;;;;;;;;1.40;99.90;;;;;;5022223;28;19957;-89
2024/01/17 00:34:30;;;;;;;;;;;1.40;99.90;;;;;;5021424;28;20064;-87
2024/01/17 00:36:56;;;;;;;;;;;1.40;99.90;;;;;;5019005;28;20299;-87
2024/01/17 00:39:22;;;;;;;;;;;1.30;99.90;;;;;;5021287;28;20022;-87
2024/01/17 00:41:48;;;;;;;;;;;1.30;99.90;;;;;;5024002;28;19936;-88
2024/01/17 00:44:17;;;;;;;;;;;1.30;99.90;;;;;;5022949;28;19964;-88
2024/01/17 00:46:43;;;;;;;;;;;1.30;99.90;;;;;;5018716;28;20398;-87
2024/01/17 00:49:08;;;;;;;;;;;1.40;99.90;;;;;;5019665;28;19999;-88
2024/01/17 00:51:35;;;;;;;;;;;1.40;99.90;;;;;;5027189;28;20326;-88
2024/01/17 00:54:00;;;;;;;;;;;1.40;99.90;;;;;;5020069;28;19930;-89
2024/01/17 00:56:32;;;;;;;;;;;1.40;99.90;;;;;;5019970;28;19950;-88
2024/01/17 00:58:58;;;;;;;;;;;1.40;99.90;;;;;;5019090;28;20065;-89
2024/01/17 01:01:24;;;;;;;;;;;1.40;99.90;;;;;;5019198;28;19932;-89
2024/01/17 01:03:49;;;;;;;;;;;1.40;99.90;;;;;;5020108;28;20404;-88
2024/01/17 01:06:15;;;;;;;;;;;1.40;99.90;;;;;;5018426;28;19980;-90
2024/01/17 01:08:40;;;;;;;;;;;1.40;99.90;;;;;;5022959;28;19942;-88
2024/01/17 01:11:06;;;;;;;;;;;1.40;99.90;;;;;;5019682;28;19936;-88
2024/01/17 01:13:31;;;;;;;;;;;1.40;99.90;;;;;;5016964;28;19936;-88
2024/01/17 01:15:57;;;;;;;;;;;1.30;99.90;;;;;;5014921;28;20675;-88
2024/01/17 01:18:22;;;;;;;;;;;1.30;99.90;;;;;;5016092;28;19951;-87
2024/01/17 01:20:48;;;;;;;;;;;1.40;99.90;;;;;;5019267;28;19925;-89
2024/01/17 01:23:13;;;;;;;;;;;1.40;99.90;;;;;;5021353;28;19987;-87
2024/01/17 01:25:38;;;;;;;;;;;1.40;99.90;;;;;;5023775;28;19931;-88
2024/01/17 01:28:04;;;;;;;;;;;1.30;99.90;;;;;;5014823;28;19965;-90
2024/01/17 01:30:31;;;;;;;;;;;1.30;99.90;;;;;;5020170;28;20380;-88
2024/01/17 01:32:56;;;;;;;;;;;1.30;99.90;;;;;;5018588;28;19971;-88
2024/01/17 01:35:22;;;;;;;;;;;1.30;99.90;;;;;;5020609;28;19939;-88
2024/01/17 01:37:47;;;;;;;;;;;1.30;99.90;;;;;;5018381;28;20681;-88
2024/01/17 01:40:13;;;;;;;;;;;1.30;99.90;;;;;;5017980;28;19930;-89
2024/01/17 01:42:41;;;;;;;;;;;1.30;99.90;;;;;;5018907;28;20038;-88
2024/01/17 01:45:07;;;;;;;;;;;1.30;99.90;;;;;;5022556;28;21617;-87
2024/01/17 01:47:33;;;;;;;;;;;1.20;99.90;;;;;;5020415;28;20393;-88
2024/01/17 01:49:58;;;;;;;;;;;1.10;99.90;;;;;;5022758;28;19937;-88
2024/01/17 01:52:24;;;;;;;;;;;1.20;99.90;;;;;;5026975;28;20396;-88
2024/01/17 01:54:50;;;;;;;;;;;1.20;99.90;;;;;;5023997;28;20024;-90
2024/01/17 01:57:16;;;;;;;;;;;1.20;99.90;;;;;;5026624;28;19952;-89
2024/01/17 01:59:42;;;;;;;;;;;1.20;99.90;;;;;;5023684;28;20310;-89
2024/01/17 02:02:08;;;;;;;;;;;1.20;99.90;;;;;;5024498;28;19933;-88
2024/01/17 02:04:34;;;;;;;;;;;1.30;99.90;;;;;;5025406;28;19935;-87
2024/01/17 02:07:01;;;;;;;;;;;1.30;99.90;;;;;;5020308;28;19998;-87
2024/01/17 02:09:28;;;;;;;;;;;1.30;99.90;;;;;;5022421;28;19929;-88
2024/01/17 02:11:54;;;;;;;;;;;1.40;99.90;;;;;;5022540;28;19931;-90
2024/01/17 02:14:20;;;;;;;;;;;1.40;99.90;;;;;;5016619;28;20301;-89
2024/01/17 02:16:46;;;;;;;;;;;1.40;99.90;;;;;;5026217;28;19937;-87
2024/01/17 02:19:15;;;;;;;;;;;1.50;99.90;;;;;;5037320;28;19941;-86
2024/01/17 02:21:40;;;;;;;;;;;1.40;99.90;;;;;;5021847;28;19948;-86
2024/01/17 02:24:23;;;;;;;;;;;1.40;99.90;;;;;;5023723;28;19934;-88
2024/01/17 02:26:49;;;;;;;;;;;1.40;99.90;;;;;;5024666;28;19958;-88
2024/01/17 02:29:14;;;;;;;;;;;1.40;99.90;;;;;;5017876;28;20036;-88
2024/01/17 02:31:40;;;;;;;;;;;1.40;99.90;;;;;;5020095;28;20015;-89
2024/01/17 02:34:05;;;;;;;;;;;1.40;99.90;;;;;;5020974;28;19923;-88
2024/01/17 02:36:31;;;;;;;;;;;1.30;99.90;;;;;;5020554;28;20673;-90
2024/01/17 02:38:56;;;;;;;;;;;1.40;99.90;;;;;;5023730;28;19942;-87
2024/01/17 02:41:22;;;;;;;;;;;1.40;99.90;;;;;;5024187;28;19929;-88
2024/01/17 02:43:47;;;;;;;;;;;1.50;99.90;;;;;;5024467;28;20528;-87
2024/01/17 02:46:13;;;;;;;;;;;1.50;99.90;;;;;;5020531;28;19936;-88
2024/01/17 02:48:38;;;;;;;;;;;1.50;99.90;;;;;;5020598;28;20399;-88
2024/01/17 02:51:04;;;;;;;;;;;1.50;99.90;;;;;;5021590;28;19932;-90
2024/01/17 02:53:29;;;;;;;;;;;1.50;99.90;;;;;;5027169;28;19965;-88
2024/01/17 02:55:55;;;;;;;;;;;1.50;99.90;;;;;;5025329;28;19984;-89
2024/01/17 02:58:20;;;;;;;;;;;1.50;99.90;;;;;;5018737;28;19989;-89
2024/01/17 03:00:46;;;;;;;;;;;1.50;99.90;;;;;;5017827;28;20446;-88
2024/01/17 03:03:11;;;;;;;;;;;1.50;99.90;;;;;;5023482;28;19944;-89
2024/01/17 03:05:37;;;;;;;;;;;1.50;99.90;;;;;;5017932;28;20478;-88
2024/01/17 03:08:04;;;;;;;;;;;1.50;99.90;;;;;;5023553;28;19968;-88
2024/01/17 03:10:30;;;;;;;;;;;1.40;99.90;;;;;;5025262;28;20474;-90
2024/01/17 03:12:56;;;;;;;;;;;1.50;99.90;;;;;;5022256;28;20029;-88
2024/01/17 03:15:22;;;;;;;;;;;1.40;99.90;;;;;;5015612;28;20076;-89
2024/01/17 03:17:47;;;;;;;;;;;1.40;99.90;;;;;;5021192;28;19939;-88
2024/01/17 03:20:13;;;;;;;;;;;1.40;99.90;;;;;;5018025;28;20121;-88
2024/01/17 03:22:39;;;;;;;;;;;1.40;99.90;;;;;;5015352;28;20532;-89
2024/01/17 03:25:05;;;;;;;;;;;1.40;99.90;;;;;;5023857;28;19944;-88
2024/01/17 03:27:31;;;;;;;;;;;1.40;99.90;;;;;;5022710;28;19969;-87
2024/01/17 03:29:56;;;;;;;;;;;1.40;99.90;;;;;;5020653;28;19936;-88
2024/01/17 03:32:22;;;;;;;;;;;1.40;99.90;;;;;;5018663;28;19986;-88
2024/01/17 03:34:47;;;;;;;;;;;1.40;99.90;;;;;;5019377;28;19961;-87
2024/01/17 03:37:13;;;;;;;;;;;1.40;99.90;;;;;;5017444;28;20286;-88
2024/01/17 03:39:42;;;;;;;;;;;1.40;99.90;;;;;;5022776;28;20361;-88
2024/01/17 03:42:07;;;;;;;;;;;1.30;99.90;;;;;;5022758;28;19949;-90
2024/01/17 03:44:33;;;;;;;;;;;1.30;99.90;;;;;;5023051;28;21621;-90
2024/01/17 03:46:58;;;;;;;;;;;1.30;99.90;;;;;;5020112;28;19964;-89
2024/01/17 03:49:24;;;;;;;;;;;1.30;99.90;;;;;;5022050;28;20935;-87
2024/01/17 03:51:49;;;;;;;;;;;1.30;99.90;;;;;;5024290;28;19941;-89
2024/01/17 03:54:15;;;;;;;;;;;1.30;99.90;;;;;;5021872;28;20804;-89
2024/01/17 03:56:40;;;;;;;;;;;1.10;99.90;;;;;;5024822;28;20405;-89
2024/01/17 03:59:06;;;;;;;;;;;1.00;99.90;;;;;;5022954;28;19940;-90
2024/01/17 04:01:32;;;;;;;;;;;0.90;99.90;;;;;;5021593;28;19944;-88
2024/01/17 04:03:57;;;;;;;;;;;0.90;99.90;;;;;;5019308;28;20329;-87
2024/01/17 04:06:23;;;;;;;;;;;1.10;99.90;;;;;;5018534;28;19957;-89
2024/01/17 04:08:48;;;;;;;;;;;1.10;99.90;;;;;;5020132;28;19955;-89
2024/01/17 04:11:14;;;;;;;;;;;1.10;99.90;;;;;;5021384;28;19941;-89
2024/01/17 04:13:41;;;;;;;;;;;1.10;99.90;;;;;;5018956;28;19956;-89
2024/01/17 04:16:07;;;;;;;;;;;1.20;99.90;;;;;;5021666;28;20379;-88
2024/01/17 04:18:32;;;;;;;;;;;1.10;99.90;;;;;;5023291;28;19942;-90
2024/01/17 04:21:00;;;;;;;;;;;1.20;99.90;;;;;;5021888;28;19948;-90
2024/01/17 04:23:26;;;;;;;;;;;1.10;99.90;;;;;;5022511;28;19955;-89
2024/01/17 04:25:51;;;;;;;;;;;1.10;99.90;;;;;;5023694;28;20330;-89
2024/01/17 04:28:17;;;;;;;;;;;1.10;99.90;;;;;;5017815;28;19989;-89
2024/01/17 04:30:44;;;;;;;;;;;1.10;99.90;;;;;;5023255;28;19957;-90
2024/01/17 04:33:09;;;;;;;;;;;1.10;99.90;;;;;;5023308;28;19940;-89
2024/01/17 04:35:35;;;;;;;;;;;1.20;99.90;;;;;;5017139;28;19944;-89
2024/01/17 04:38:00;;;;;;;;;;;1.20;99.90;;;;;;5016833;28;19928;-90
2024/01/17 04:40:26;;;;;;;;;;;1.20;99.90;;;;;;5021040;28;19942;-90
2024/01/17 04:42:51;;;;;;;;;;;1.10;99.90;;;;;;5020842;28;20029;-88
2024/01/17 04:45:17;;;;;;;;;;;1.00;99.90;;;;;;5023966;28;19978;-90
2024/01/17 04:47:43;;;;;;;;;;;1.00;99.90;;;;;;5020353;28;19973;-89
2024/01/17 04:50:10;;;;;;;;;;;1.10;99.90;;;;;;5016381;28;19940;-90
2024/01/17 04:52:35;;;;;;;;;;;1.10;99.90;;;;;;5017376;28;19947;-89
2024/01/17 04:55:01;;;;;;;;;;;1.00;99.90;;;;;;5018072;28;19945;-89
2024/01/17 04:57:26;;;;;;;;;;;1.00;99.90;;;;;;5018476;28;19958;-89
2024/01/17 04:59:52;;;;;;;;;;;0.90;99.90;;;;;;5022053;28;20384;-90
2024/01/17 05:02:18;;;;;;;;;;;0.90;99.90;;;;;;5029864;28;20417;-88
2024/01/17 05:04:44;;;;;;;;;;;0.90;99.90;;;;;;5021411;28;19982;-89
2024/01/17 05:07:10;;;;;;;;;;;1.00;99.90;;;;;;5020217;28;19947;-89
2024/01/17 05:09:35;;;;;;;;;;;1.00;99.90;;;;;;5017404;28;19944;-89
2024/01/17 05:12:01;;;;;;;;;;;1.00;99.90;;;;;;5021012;28;20427;-89
2024/01/17 05:14:26;;;;;;;;;;;1.10;99.90;;;;;;5019171;28;19944;-89
2024/01/17 05:16:52;;;;;;;;;;;1.00;99.90;;;;;;5022030;28;19957;-89
2024/01/17 05:19:17;;;;;;;;;;;1.10;99.90;;;;;;5021948;28;20042;-90
2024/01/17 05:21:43;;;;;;;;;;;1.10;99.90;;;;;;5018894;28;19985;-89
2024/01/17 05:24:08;;;;;;;;;;;1.10;99.90;;;;;;5018647;28;19944;-89
2024/01/17 05:26:34;;;;;;;;;;;1.10;99.90;;;;;;5019405;28;19984;-89
2024/01/17 05:28:59;;;;;;;;;;;1.10;99.90;;;;;;5017605;28;20430;-89
2024/01/17 05:31:25;;;;;;;;;;;1.10;99.90;;;;;;5017589;28;20028;-89
2024/01/17 05:33:50;;;;;;;;;;;1.20;99.90;;;;;;5017727;28;20047;-90
2024/01/17 05:36:16;;;;;;;;;;;1.10;99.90;;;;;;5017493;28;20471;-88
2024/01/17 05:38:41;;;;;;;;;;;1.10;99.90;;;;;;5018453;28;19943;-89
2024/01/17 05:41:07;;;;;;;;;;;1.20;99.90;;;;;;5019428;28;19949;-90
2024/01/17 05:43:32;;;;;;;;;;;1.20;99.90;;;;;;5018658;28;20365;-89
2024/01/17 05:45:58;;;;;;;;;;;1.20;99.90;;;;;;5018349;28;20476;-88
2024/01/17 05:48:24;;;;;;;;;;;1.20;99.90;;;;;;5019633;28;20373;-89
2024/01/17 05:50:49;;;;;;;;;;;1.20;99.90;;;;;;5018670;28;20406;-90
2024/01/17 05:53:15;;;;;;;;;;;1.20;99.90;;;;;;5018519;28;19959;-89
2024/01/17 05:55:41;;;;;;;;;;;1.20;99.90;;;;;;5038839;28;20507;-89
2024/01/17 05:58:06;;;;;;;;;;;1.20;99.90;;;;;;5040568;28;20058;-89
2024/01/17 06:00:32;;;;;;;;;;;1.20;99.90;;;;;;5040901;28;19974;-89
2024/01/17 06:02:57;;;;;;;;;;;1.20;99.90;;;;;;5037672;28;19946;-89
2024/01/17 06:05:23;;;;;;;;;;;1.20;99.90;;;;;;5041907;28;19948;-89
2024/01/17 06:07:48;;;;;;;;;;;1.20;99.90;;;;;;5040801;28;19982;-89
2024/01/17 06:10:14;;;;;;;;;;;1.20;99.90;;;;;;5040170;28;19936;-89
2024/01/17 06:12:40;;;;;;;;;;;1.20;99.90;;;;;;5036417;28;20041;-89
2024/01/17 06:15:06;;;;;;;;;;;1.20;99.90;;;;;;5035907;28;19940;-91
2024/01/17 06:17:31;;;;;;;;;;;1.20;99.90;;;;;;5034755;28;20513;-89
2024/01/17 06:19:57;;;;;;;;;;;1.30;99.90;;;;;;5036508;28;19978;-91
2024/01/17 06:22:22;;;;;;;;;;;1.30;99.90;;;;;;5039101;28;19943;-90
2024/01/17 06:24:48;;;;;;;;;;;1.30;99.90;;;;;;5035617;28;19945;-89
2024/01/17 06:27:14;;;;;;;;;;;1.30;99.90;;;;;;5039545;28;19959;-89
2024/01/17 06:29:46;;;;;;;;;;;1.30;99.90;;;;;;5039363;28;20390;-89
2024/01/17 06:32:12;;;;;;;;;;;1.30;99.90;;;;;;5041158;28;19946;-87
2024/01/17 06:34:39;;;;;;;;;;;1.30;99.90;;;;;;5040163;28;19946;-89
2024/01/17 06:37:04;;;;;;;;;;;1.30;99.90;;;;;;5041651;28;19953;-89
2024/01/17 06:39:31;;;;;;;;;;;1.30;99.90;;;;;;5040366;28;19975;-89
2024/01/17 06:41:57;;;;;;;;;;;1.30;99.90;;;;;;5042829;28;19989;-87
2024/01/17 06:44:22;;;;;;;;;;;1.30;99.90;;;;;;5043419;28;20024;-89
2024/01/17 06:46:48;;;;;;;;;;;1.20;99.90;;;;;;5044771;28;20434;-89
2024/01/17 06:49:13;;;;;;;;;;;1.30;99.90;;;;;;5043234;28;20404;-89
2024/01/17 06:51:39;;;;;;;;;;;1.20;99.90;;;;;;5046554;28;20337;-88
2024/01/17 06:54:04;;;;;;;;;;;1.20;99.90;;;;;;5042617;28;20371;-88
2024/01/17 06:56:32;;;;;;;;;;;1.20;99.90;;;;;;5040861;28;20612;-88
2024/01/17 06:58:58;;;;;;;;;;;1.30;99.90;;;;;;5041939;28;19940;-88
2024/01/17 07:01:24;;;;;;;;;;;1.30;99.90;;;;;;5042475;28;19948;-88
2024/01/17 07:03:50;;;;;;;;;;;1.30;99.90;;;;;;5041685;28;19932;-87
2024/01/17 07:06:15;;;;;;;;;;;1.30;99.90;;;;;;5036541;28;19940;-88
2024/01/17 07:08:41;;;;;;;;;;;1.30;99.90;;;;;;5036136;28;19958;-87
2024/01/17 07:11:08;;;;;;;;;;;1.20;99.90;;;;;;5035958;28;19985;-89
2024/01/17 07:13:35;;;;;;;;;;;1.20;99.90;;;;;;5035327;28;19993;-88
2024/01/17 07:16:01;;;;;;;;;;;1.20;99.90;;;;;;5040873;28;19942;-89
2024/01/17 07:18:27;;;;;;;;;;;1.20;99.90;;;;;;5041521;28;19957;-88
2024/01/17 07:20:52;;;;;;;;;;;1.20;99.90;;;;;;5039689;28;19948;-88
2024/01/17 07:23:18;;;;;;;;;;;1.10;99.90;;;;;;5036332;28;19975;-89
2024/01/17 07:25:43;;;;;;;;;;;1.20;99.90;;;;;;5044947;28;19940;-90
2024/01/17 07:28:09;;;;;;;;;;;1.20;99.90;;;;;;5046092;28;20285;-93
2024/01/17 07:30:35;;;;;;;;;;;1.20;99.90;;;;;;5041524;28;19940;-89
2024/01/17 07:33:20;;;;;;;;;;;;;;;;;;;;;
2024/01/17 07:35:59;;;;;;;;;;;;;;;;;;;;;
2024/01/17 07:42:00;;;;;;;;;;;;;;;;;;;;;
2024/01/17 07:45:11;;;;;;;;;;;1.20;99.90;;;;;;5018491;28;20736;-87
2024/01/17 08:58:13;;;;;;;;;;;1.80;99.90;;;;;;5058376;22;20839;-83
2024/01/17 09:00:39;;;;;;;;;;;1.90;99.90;;;;;;4981443;28;19948;-78
2024/01/17 09:03:04;;;;;;;;;;;2.00;99.90;;;;;;4971145;28;19945;-82
2024/01/17 09:05:30;;;;;;;;;;;2.00;99.90;;;;;;4975739;28;19945;-78
2024/01/17 09:07:56;;;;;;;;;;;2.00;99.90;;;;;;4942418;28;20158;-79
2024/01/17 09:10:22;;;;;;;;;;;2.10;99.90;;;;;;4956322;28;19942;-77
2024/01/17 09:12:48;;;;;;;;;;;2.10;99.90;;;;;;4962449;28;19937;-79
2024/01/17 09:15:14;;;;;;;;;;;2.10;99.90;;;;;;4959870;28;19950;-80
2024/01/17 09:17:40;;;;;;;;;;;2.20;99.90;;;;;;4960015;28;19941;-79
2024/01/17 09:20:06;;;;;;;;;;;2.20;99.90;;;;;;4964387;28;19941;-80
2024/01/17 09:22:33;;;;;;;;;;;2.10;99.90;;;;;;4964120;28;19955;-78
2024/01/17 09:25:01;;;;;;;;;;;2.20;99.90;;;;;;4954489;28;19949;-77
2024/01/17 09:27:27;;;;;;;;;;;2.20;99.90;;;;;;4963781;28;19945;-80
2024/01/17 09:29:53;;;;;;;;;;;2.20;99.90;;;;;;4971468;28;19948;-80
2024/01/17 09:32:18;;;;;;;;;;;2.40;99.90;;;;;;4959249;28;20164;-80
2024/01/17 09:34:47;;;;;;;;;;;2.40;99.90;;;;;;4949394;28;20491;-82
2024/01/17 09:37:13;;;;;;;;;;;2.50;99.90;;;;;;4957009;28;20185;-84
2024/01/17 09:39:39;;;;;;;;;;;2.70;99.90;;;;;;4956541;28;20064;-83
2024/01/17 09:42:05;;;;;;;;;;;2.80;99.90;;;;;;4957006;28;21023;-83
2024/01/17 09:44:31;;;;;;;;;;;3.00;99.90;;;;;;4958264;28;20076;-80
2024/01/17 09:46:58;;;;;;;;;;;3.10;99.90;;;;;;4956454;28;20148;-84
2024/01/17 09:49:24;;;;;;;;;;;3.20;99.90;;;;;;4961777;28;19934;-84
2024/01/17 09:51:50;;;;;;;;;;;3.40;99.90;;;;;;4975468;28;20304;-85
2024/01/17 09:54:17;;;;;;;;;;;3.50;99.90;;;;;;4966270;28;19994;-83
2024/01/17 09:56:44;;;;;;;;;;;3.50;99.90;;;;;;4985222;28;19951;-81
2024/01/17 09:59:23;;;;;;;;;;;3.60;99.90;;;;;;4986526;28;20358;-82
2024/01/17 10:01:48;;;;;;;;;;;3.80;99.90;;;;;;4988478;28;19952;-85
2024/01/17 10:04:15;;;;;;;;;;;3.80;99.90;;;;;;4984729;28;19938;-79
2024/01/17 10:06:42;;;;;;;;;;;3.90;99.90;;;;;;4988905;28;20474;-79
2024/01/17 10:09:08;;;;;;;;;;;4.00;99.90;;;;;;4988700;28;20265;-85
2024/01/17 10:11:34;;;;;;;;;;;4.10;99.90;;;;;;4988316;28;20884;-85
2024/01/17 10:14:01;;;;;;;;;;;4.20;99.90;;;;;;4985916;28;19940;-83
2024/01/17 10:16:31;;;;;;;;;;;4.20;99.90;;;;;;4986630;28;19961;-84
2024/01/17 10:18:57;;;;;;;;;;;4.50;99.90;;;;;;4992386;28;19941;-85
2024/01/17 10:21:22;;;;;;;;;;;4.70;99.90;;;;;;4997295;28;20036;-85
2024/01/17 10:23:48;;;;;;;;;;;4.80;99.90;;;;;;5003323;28;19972;-86
2024/01/17 10:26:14;;;;;;;;;;;4.80;99.90;;;;;;5013982;28;20692;-86
2024/01/17 10:28:39;;;;;;;;;;;4.90;99.90;;;;;;5021037;28;19968;-88
2024/01/17 10:31:05;;;;;;;;;;;5.10;99.90;;;;;;5019209;28;19993;-80
2024/01/17 10:33:32;;;;;;;;;;;5.20;99.90;;;;;;5016804;28;19970;-81
2024/01/17 10:35:58;;;;;;;;;;;5.30;99.90;;;;;;5015180;28;19960;-83
2024/01/17 10:38:23;;;;;;;;;;;5.50;99.90;;;;;;5001224;28;20048;-85
2024/01/17 10:41:05;;;;;;;;;;;5.60;99.90;;;;;;5000248;28;20003;-80
2024/01/17 10:43:31;;;;;;;;;;;5.80;99.90;;;;;;4996246;28;19959;-85
2024/01/17 10:45:56;;;;;;;;;;;5.90;99.90;;;;;;4987219;28;20394;-83
2024/01/17 10:48:24;;;;;;;;;;;5.90;99.90;;;;;;4989734;28;20117;-84
2024/01/17 10:50:53;;;;;;;;;;;5.80;99.90;;;;;;4983277;28;20628;-79
2024/01/17 10:53:19;;;;;;;;;;;5.80;99.90;;;;;;4989271;28;20540;-83
2024/01/17 10:55:45;;;;;;;;;;;5.80;99.90;;;;;;4982188;28;19955;-85
2024/01/17 10:58:13;;;;;;;;;;;5.90;99.90;;;;;;4990007;28;19985;-83
2024/01/17 11:00:42;;;;;;;;;;;6.00;99.90;;;;;;4980825;28;19934;-83
2024/01/17 11:03:09;;;;;;;;;;;5.90;99.90;;;;;;4992247;28;19968;-81
2024/01/17 11:05:41;;;;;;;;;;;6.00;99.90;;;;;;4989207;28;20626;-78
2024/01/17 11:08:06;;;;;;;;;;;5.80;99.90;;;;;;4985045;28;20014;-82
2024/01/17 11:10:33;;;;;;;;;;;5.80;99.90;;;;;;4979099;28;20405;-83
2024/01/17 11:12:59;;;;;;;;;;;6.10;99.90;;;;;;4981735;28;19938;-80
2024/01/17 11:15:26;;;;;;;;;;;6.30;99.90;;;;;;4986407;28;19933;-86
2024/01/17 11:17:53;;;;;;;;;;;6.60;99.90;;;;;;4988814;28;19981;-89
2024/01/17 11:20:19;;;;;;;;;;;6.80;99.90;;;;;;4986153;28;19926;-87
2024/01/17 11:22:48;;;;;;;;;;;6.80;99.90;;;;;;4980344;28;20456;-86
2024/01/17 11:25:33;;;;;;;;;;;6.90;99.80;;;;;;4987933;28;19955;-86
2024/01/17 11:28:04;;;;;;;;;;;7.00;98.20;;;;;;4979507;28;20100;-82
2024/01/17 11:30:44;;;;;;;;;;;7.10;96.80;;;;;;4984175;28;19942;-83
2024/01/17 11:33:11;;;;;;;;;;;7.10;95.30;;;;;;4980940;28;19959;-85
2024/01/17 11:35:46;;;;;;;;;;;7.20;93.20;;;;;;4987459;28;20058;-84
2024/01/17 11:38:14;;;;;;;;;;;7.40;94.20;;;;;;4985941;28;19944;-87
2024/01/17 11:40:40;;;;;;;;;;;7.60;91.10;;;;;;4995599;28;19939;-85
2024/01/17 11:43:07;;;;;;;;;;;7.60;82.80;;;;;;4990532;28;19940;-84
2024/01/17 11:45:33;;;;;;;;;;;7.60;86.00;;;;;;4991339;28;20356;-85
2024/01/17 11:48:10;;;;;;;;;;;7.60;85.70;;;;;;4980702;28;20072;-82
2024/01/17 11:50:37;;;;;;;;;;;7.60;84.60;;;;;;4986869;28;19943;-83
2024/01/17 11:53:03;;;;;;;;;;;7.40;88.70;;;;;;4988953;28;21061;-83
2024/01/17 11:55:30;;;;;;;;;;;7.30;88.60;;;;;;5009282;28;20080;-87
2024/01/17 11:57:55;;;;;;;;;;;7.30;90.00;;;;;;5005697;28;20631;-82
2024/01/17 12:00:21;;;;;;;;;;;7.30;91.60;;;;;;5006209;28;19971;-83
2024/01/17 12:02:47;;;;;;;;;;;7.40;90.00;;;;;;4963352;28;19967;-85
2024/01/17 12:05:13;;;;;;;;;;;7.40;90.80;;;;;;4980097;28;19980;-83
2024/01/17 12:07:40;;;;;;;;;;;7.30;91.60;;;;;;4986197;28;20232;-87
2024/01/17 12:10:10;;;;;;;;;;;7.10;92.00;;;;;;4999251;28;19936;-82
2024/01/17 12:12:37;;;;;;;;;;;7.00;91.90;;;;;;4976594;28;20174;-84
2024/01/17 12:15:05;;;;;;;;;;;7.00;93.00;;;;;;4970852;28;19938;-81
2024/01/17 12:17:39;;;;;;;;;;;6.90;90.80;;;;;;4976901;28;19955;-82
2024/01/17 12:20:06;;;;;;;;;;;6.80;93.80;;;;;;4973583;28;19953;-85
2024/01/17 12:22:32;;;;;;;;;;;6.60;91.40;;;;;;4964197;28;20029;-80
2024/01/17 12:24:58;;;;;;;;;;;6.50;92.10;;;;;;4970676;28;19951;-85
2024/01/17 12:27:24;;;;;;;;;;;6.40;96.40;;;;;;4978294;28;20795;-87
2024/01/17 12:29:54;;;;;;;;;;;6.30;98.30;;;;;;4985075;28;19946;-86
2024/01/17 12:32:20;;;;;;;;;;;6.40;97.50;;;;;;4996581;28;20108;-85
2024/01/17 12:34:45;;;;;;;;;;;6.40;96.70;;;;;;5000656;28;19981;-86
2024/01/17 12:37:11;;;;;;;;;;;6.50;95.70;;;;;;5005332;28;20146;-84
2024/01/17 12:39:36;;;;;;;;;;;6.60;97.30;;;;;;4996268;28;19946;-78
2024/01/17 12:42:03;;;;;;;;;;;6.50;93.80;;;;;;4989305;28;19953;-77
2024/01/17 12:44:30;;;;;;;;;;;6.40;94.60;;;;;;4994494;28;20423;-85
2024/01/17 12:46:56;;;;;;;;;;;6.40;95.60;;;;;;4979956;28;20343;-82
2024/01/17 12:49:21;;;;;;;;;;;6.20;96.80;;;;;;4972259;28;20182;-80
2024/01/17 12:51:47;;;;;;;;;;;6.10;97.10;;;;;;4962669;28;20671;-85
2024/01/17 12:54:17;;;;;;;;;;;6.00;97.60;;;;;;4969919;28;20136;-85
2024/01/17 12:56:42;;;;;;;;;;;6.00;99.90;;;;;;4971965;28;19962;-87
2024/01/17 12:59:08;;;;;;;;;;;6.00;98.80;;;;;;4979090;28;20086;-90
2024/01/17 13:01:39;;;;;;;;;;;5.90;99.70;;;;;;4976929;28;21175;-85
2024/01/17 13:04:07;;;;;;;;;;;6.00;99.90;;;;;;4974988;28;19942;-84
2024/01/17 13:06:50;;;;;;;;;;;6.00;98.50;;;;;;4970222;28;20504;-81
2024/01/17 13:09:17;;;;;;;;;;;5.90;99.90;;;;;;4980206;28;20414;-81
2024/01/17 13:11:51;;;;;;;;;;;5.80;99.90;;;;;;4981354;28;19970;-83
2024/01/17 13:14:18;;;;;;;;;;;5.90;99.90;;;;;;4981785;28;19947;-80
2024/01/17 13:16:45;;;;;;;;;;;6.00;99.90;;;;;;4983932;28;19989;-85
2024/01/17 13:19:12;;;;;;;;;;;6.00;99.90;;;;;;4978399;28;20469;-80
2024/01/17 13:21:38;;;;;;;;;;;6.10;99.90;;;;;;4978236;28;19940;-84
2024/01/17 13:24:04;;;;;;;;;;;6.10;99.10;;;;;;4982816;28;19933;-86
2024/01/17 13:26:30;;;;;;;;;;;6.20;99.90;;;;;;4983849;28;20293;-85
2024/01/17 13:28:56;;;;;;;;;;;6.20;98.80;;;;;;4991473;28;20562;-86
2024/01/17 13:31:22;;;;;;;;;;;6.20;96.10;;;;;;4990299;28;19969;-86
2024/01/17 13:33:50;;;;;;;;;;;6.20;96.60;;;;;;4990381;28;20148;-90
2024/01/17 13:36:16;;;;;;;;;;;6.20;96.60;;;;;;4986181;28;20092;-84
2024/01/17 13:38:41;;;;;;;;;;;6.20;95.50;;;;;;4988644;28;19961;-84
2024/01/17 13:41:07;;;;;;;;;;;6.20;96.10;;;;;;4992781;28;20003;-81
2024/01/17 13:43:33;;;;;;;;;;;6.10;96.40;;;;;;5000671;28;19956;-85
2024/01/17 13:45:59;;;;;;;;;;;5.90;98.90;;;;;;5006093;28;19963;-85
2024/01/17 13:48:25;;;;;;;;;;;5.90;99.90;;;;;;5014827;28;19962;-90
2024/01/17 13:50:50;;;;;;;;;;;5.90;99.60;;;;;;5013344;28;19954;-86
2024/01/17 13:53:28;;;;;;;;;;;5.90;99.90;;;;;;4989830;28;19951;-79
2024/01/17 13:55:56;;;;;;;;;;;5.90;99.90;;;;;;4985265;28;19953;-87
2024/01/17 13:58:22;;;;;;;;;;;5.90;99.90;;;;;;4988325;28;20090;-88
2024/01/17 14:00:52;;;;;;;;;;;5.90;99.90;;;;;;4981720;28;19932;-83
2024/01/17 14:03:18;;;;;;;;;;;5.60;99.90;;;;;;4984303;28;19986;-82
2024/01/17 14:05:44;;;;;;;;;;;5.60;99.90;;;;;;4981701;28;20027;-82
2024/01/17 14:08:10;;;;;;;;;;;5.50;99.90;;;;;;4978206;28;19965;-83
2024/01/17 14:10:36;;;;;;;;;;;5.50;99.90;;;;;;4984828;28;19940;-87
2024/01/17 14:13:01;;;;;;;;;;;5.50;99.90;;;;;;4989979;28;20026;-80
2024/01/17 14:15:27;;;;;;;;;;;5.50;99.90;;;;;;4988252;28;20656;-88
2024/01/17 14:17:53;;;;;;;;;;;5.60;99.90;;;;;;4981920;28;19938;-86
2024/01/17 14:20:19;;;;;;;;;;;5.50;99.90;;;;;;4986613;28;20546;-85
2024/01/17 14:22:46;;;;;;;;;;;5.50;99.90;;;;;;4983799;28;20177;-84
2024/01/17 14:25:15;;;;;;;;;;;5.50;99.90;;;;;;4977278;28;20248;-86
2024/01/17 14:27:41;;;;;;;;;;;5.40;99.90;;;;;;4983884;28;20179;-82
2024/01/17 14:30:16;;;;;;;;;;;5.30;99.90;;;;;;4986609;28;20005;-90
2024/01/17 14:32:43;;;;;;;;;;;5.20;99.90;;;;;;4992181;28;20020;-86
2024/01/17 14:35:14;;;;;;;;;;;5.10;99.90;;;;;;5446901;22;19967;-88
2024/01/17 14:37:52;;;;;;;;;;;5.00;99.90;;;;;;5030566;28;19940;-89
2024/01/17 14:40:17;;;;;;;;;;;5.00;99.90;;;;;;5039769;28;19946;-87
2024/01/17 14:42:44;;;;;;;;;;;5.00;99.90;;;;;;5033967;28;19937;-85
2024/01/17 14:45:10;;;;;;;;;;;4.90;99.90;;;;;;5030691;28;19976;-87
2024/01/17 14:47:37;;;;;;;;;;;4.90;99.90;;;;;;5020032;28;19948;-87
2024/01/17 14:50:32;;;;;;;;;;;4.90;99.90;;;;;;4999369;28;19939;-88
2024/01/17 14:52:58;;;;;;;;;;;4.90;99.90;;;;;;4981139;28;19944;-84
2024/01/17 14:55:23;;;;;;;;;;;4.90;99.90;;;;;;4993242;28;19989;-83
2024/01/17 14:57:49;;;;;;;;;;;4.80;99.90;;;;;;5003490;28;19943;-87
2024/01/17 15:00:18;;;;;;;;;;;4.80;99.90;;;;;;4999225;28;20414;-90
2024/01/17 15:02:47;;;;;;;;;;;4.70;99.90;;;;;;5002366;28;19952;-89
2024/01/17 15:05:13;;;;;;;;;;;4.60;99.90;;;;;;5007219;28;19936;-88
2024/01/17 15:07:39;;;;;;;;;;;4.60;99.90;;;;;;5007795;28;20285;-87
2024/01/17 15:10:06;;;;;;;;;;;4.60;99.90;;;;;;5008405;28;20014;-82
2024/01/17 15:12:31;;;;;;;;;;;4.50;99.90;;;;;;5011267;28;19959;-86
2024/01/17 15:14:58;;;;;;;;;;;4.50;99.90;;;;;;5012047;28;19939;-89
2024/01/17 15:17:24;;;;;;;;;;;4.50;99.90;;;;;;5011489;28;19941;-85
2024/01/17 15:19:50;;;;;;;;;;;4.50;99.90;;;;;;5000554;28;19947;-81
2024/01/17 15:22:15;;;;;;;;;;;4.40;99.90;;;;;;4986143;28;20045;-86
2024/01/17 15:24:41;;;;;;;;;;;4.50;99.90;;;;;;5000884;28;19940;-86
2024/01/17 15:27:07;;;;;;;;;;;4.50;99.90;;;;;;5004545;28;19967;-85
2024/01/17 15:29:34;;;;;;;;;;;4.40;99.90;;;;;;5010399;28;19931;-84
2024/01/17 15:31:59;;;;;;;;;;;4.50;99.90;;;;;;5014483;28;19931;-86
2024/01/17 15:34:25;;;;;;;;;;;4.30;99.90;;;;;;5022525;28;20071;-85
2024/01/17 15:36:51;;;;;;;;;;;4.30;99.90;;;;;;5018409;28;19986;-86
2024/01/17 15:39:21;;;;;;;;;;;4.20;99.90;;;;;;5023454;28;19971;-87
2024/01/17 15:41:46;;;;;;;;;;;4.30;99.90;;;;;;5016717;28;19946;-86
2024/01/17 15:44:12;;;;;;;;;;;4.20;99.90;;;;;;5024032;28;19939;-87